Time;durP1;ratioP1;P1;durP2;ratioP2;P2;SDS_P1;SDS_P2;PMS_P1;PMS_P2;Temp;Humidity;BMP_temperature;BMP_pressure;BME280_temperature;BME280_humidity;BME280_pressure;Samples;Min_cycle;Max_cycle;Signal;HPM_P1;HPM_P2
2021/07/06 00:02:37;;;;;;;2.95;1.90;;;;;;;;;;5049173;28;20170;-81
2021/07/06 00:05:22;;;;;;;3.72;2.00;;;;;;;;;;5053676;28;20074;-81
2021/07/06 00:08:07;;;;;;;3.38;2.10;;;;;;;;;;5050746;28;20490;-81
2021/07/06 00:10:51;;;;;;;2.67;2.10;;;;;;;;;;5067610;28;20502;-81
2021/07/06 00:13:36;;;;;;;3.67;2.10;;;;;;;;;;5067058;28;20579;-80
2021/07/06 00:16:21;;;;;;;2.97;2.20;;;;;;;;;;5065277;28;20071;-81
2021/07/06 00:19:05;;;;;;;3.33;2.00;;;;;;;;;;5065418;28;20115;-80
2021/07/06 00:21:50;;;;;;;3.60;2.30;;;;;;;;;;5061116;28;20676;-81
2021/07/06 00:24:35;;;;;;;3.65;2.17;;;;;;;;;;5064884;28;20487;-80
2021/07/06 00:27:19;;;;;;;4.00;2.05;;;;;;;;;;5067878;28;20183;-81
2021/07/06 00:30:05;;;;;;;3.33;2.20;;;;;;;;;;5069453;28;20131;-81
2021/07/06 00:32:50;;;;;;;4.75;2.35;;;;;;;;;;5079530;28;20407;-81
2021/07/06 00:35:34;;;;;;;4.38;2.20;;;;;;;;;;5049802;28;20119;-81
2021/07/06 00:38:19;;;;;;;4.05;2.30;;;;;;;;;;5068573;28;20090;-81
2021/07/06 00:41:04;;;;;;;3.33;2.15;;;;;;;;;;5065786;28;20555;-81
2021/07/06 00:43:48;;;;;;;2.97;2.08;;;;;;;;;;5063214;28;20111;-81
2021/07/06 00:46:33;;;;;;;2.58;1.90;;;;;;;;;;5064159;28;20043;-81
2021/07/06 00:49:18;;;;;;;3.20;1.95;;;;;;;;;;5048242;28;20035;-81
2021/07/06 00:52:02;;;;;;;2.88;2.08;;;;;;;;;;5049308;28;20238;-81
2021/07/06 00:54:47;;;;;;;4.20;2.35;;;;;;;;;;5064516;28;20048;-81
2021/07/06 00:57:32;;;;;;;3.38;2.10;;;;;;;;;;5048792;28;20137;-81
2021/07/06 01:00:21;;;;;;;3.25;2.15;;;;;;;;;;5049952;28;20035;-81
2021/07/06 01:03:06;;;;;;;2.70;2.08;;;;;;;;;;5065527;28;20055;-81
2021/07/06 01:05:50;;;;;;;2.72;2.10;;;;;;;;;;5065909;28;20661;-81
2021/07/06 01:08:36;;;;;;;2.60;1.95;;;;;;;;;;5066331;28;20579;-81
2021/07/06 01:11:21;;;;;;;2.58;2.00;;;;;;;;;;5063858;28;20553;-81
2021/07/06 01:14:05;;;;;;;2.33;2.05;;;;;;;;;;5062631;28;20044;-81
2021/07/06 01:16:50;;;;;;;3.50;2.10;;;;;;;;;;5045526;28;20583;-81
2021/07/06 01:19:35;;;;;;;2.97;2.00;;;;;;;;;;5054374;28;20082;-81
2021/07/06 01:22:32;;;;;;;3.60;2.30;;;;;;;;;;5045861;28;20056;-81
2021/07/06 01:25:16;;;;;;;2.83;2.20;;;;;;;;;;5060065;28;20041;-81
2021/07/06 01:28:01;;;;;;;5.35;2.72;;;;;;;;;;5045068;28;20506;-81
2021/07/06 01:30:46;;;;;;;3.67;2.80;;;;;;;;;;5065259;28;20059;-81
2021/07/06 01:33:31;;;;;;;3.13;2.50;;;;;;;;;;5049095;28;20082;-81
2021/07/06 01:36:18;;;;;;;4.57;2.60;;;;;;;;;;5070564;28;20121;-81
2021/07/06 01:39:02;;;;;;;3.45;2.50;;;;;;;;;;5058384;28;20728;-81
2021/07/06 01:41:47;;;;;;;3.38;2.13;;;;;;;;;;5072413;28;20047;-81
2021/07/06 01:44:32;;;;;;;3.10;2.45;;;;;;;;;;5068226;28;20119;-81
2021/07/06 01:47:16;;;;;;;3.95;2.30;;;;;;;;;;5084410;28;20035;-81
2021/07/06 01:50:01;;;;;;;4.25;2.58;;;;;;;;;;5063037;28;20501;-81
2021/07/06 01:52:46;;;;;;;3.05;2.30;;;;;;;;;;5076624;28;20116;-81
2021/07/06 01:55:35;;;;;;;2.47;2.20;;;;;;;;;;5084072;28;20040;-81
2021/07/06 01:58:20;;;;;;;3.22;2.40;;;;;;;;;;5049634;28;20040;-81
2021/07/06 02:01:05;;;;;;;4.57;2.78;;;;;;;;;;5050277;28;20035;-81
2021/07/06 02:03:50;;;;;;;3.17;2.50;;;;;;;;;;5055090;28;20402;-81
2021/07/06 02:06:35;;;;;;;4.22;2.42;;;;;;;;;;5086058;28;20038;-81
2021/07/06 02:09:20;;;;;;;3.28;2.28;;;;;;;;;;5079016;28;20159;-81
2021/07/06 02:12:05;;;;;;;3.55;2.17;;;;;;;;;;5085556;28;20457;-81
2021/07/06 02:14:49;;;;;;;4.68;2.25;;;;;;;;;;5072663;28;20046;-81
2021/07/06 02:17:34;;;;;;;4.93;2.33;;;;;;;;;;5068581;28;20043;-81
2021/07/06 02:20:19;;;;;;;3.42;2.17;;;;;;;;;;5075210;28;20034;-81
2021/07/06 02:23:06;;;;;;;3.05;2.20;;;;;;;;;;5047487;28;20115;-81
2021/07/06 02:25:51;;;;;;;3.28;2.35;;;;;;;;;;5055935;28;20040;-81
2021/07/06 02:28:36;;;;;;;2.92;2.38;;;;;;;;;;5061964;28;20056;-81
2021/07/06 02:31:20;;;;;;;2.97;2.28;;;;;;;;;;5062974;28;20039;-81
2021/07/06 02:34:05;;;;;;;2.85;2.20;;;;;;;;;;5070432;28;20078;-81
2021/07/06 02:36:49;;;;;;;3.40;2.22;;;;;;;;;;5067373;28;20038;-81
2021/07/06 02:39:34;;;;;;;2.25;1.98;;;;;;;;;;5042965;28;20044;-81
2021/07/06 02:42:19;;;;;;;2.92;2.13;;;;;;;;;;5078914;28;20051;-81
2021/07/06 02:45:05;;;;;;;2.40;2.10;;;;;;;;;;5080311;28;20285;-80
2021/07/06 02:47:49;;;;;;;3.25;2.50;;;;;;;;;;5071135;28;20109;-81
2021/07/06 02:50:36;;;;;;;3.15;2.20;;;;;;;;;;5086379;28;20039;-81
2021/07/06 02:53:21;;;;;;;4.72;2.30;;;;;;;;;;5053378;28;20040;-81
2021/07/06 02:56:06;;;;;;;3.00;2.40;;;;;;;;;;5078452;28;20082;-81
2021/07/06 02:58:50;;;;;;;2.90;2.30;;;;;;;;;;5085262;28;20039;-81
2021/07/06 03:01:35;;;;;;;4.75;2.10;;;;;;;;;;5076521;28;20051;-81
2021/07/06 03:04:20;;;;;;;3.40;2.40;;;;;;;;;;5052223;28;20043;-81
2021/07/06 03:07:04;;;;;;;2.45;2.10;;;;;;;;;;5066469;28;20514;-81
2021/07/06 03:09:49;;;;;;;3.50;2.95;;;;;;;;;;5077679;28;20038;-81
2021/07/06 03:12:33;;;;;;;2.97;2.17;;;;;;;;;;5055574;28;20530;-82
2021/07/06 03:15:18;;;;;;;2.55;2.20;;;;;;;;;;5076905;28;20439;-81
2021/07/06 03:18:05;;;;;;;3.22;2.10;;;;;;;;;;5059657;28;20050;-82
2021/07/06 03:20:50;;;;;;;3.53;2.25;;;;;;;;;;5074213;28;20039;-81
2021/07/06 03:23:34;;;;;;;2.88;2.20;;;;;;;;;;5078941;28;20470;-81
2021/07/06 03:26:19;;;;;;;3.22;2.40;;;;;;;;;;5058473;28;20105;-81
2021/07/06 03:29:03;;;;;;;3.33;2.30;;;;;;;;;;5082278;28;20684;-81
2021/07/06 03:31:48;;;;;;;4.28;2.20;;;;;;;;;;5070377;28;20039;-81
2021/07/06 03:34:32;;;;;;;3.38;2.50;;;;;;;;;;5068131;28;20133;-81
2021/07/06 03:37:17;;;;;;;2.67;2.20;;;;;;;;;;5082814;28;20089;-81
2021/07/06 03:40:02;;;;;;;4.53;2.47;;;;;;;;;;5072251;28;20466;-81
2021/07/06 03:42:46;;;;;;;2.85;2.30;;;;;;;;;;5071174;28;20044;-81
2021/07/06 03:45:31;;;;;;;2.95;2.38;;;;;;;;;;5081853;28;20494;-81
2021/07/06 03:48:16;;;;;;;3.15;2.20;;;;;;;;;;5082571;28;20036;-81
2021/07/06 03:51:00;;;;;;;2.83;2.30;;;;;;;;;;5067810;28;20093;-80
2021/07/06 03:53:45;;;;;;;3.35;2.00;;;;;;;;;;5071965;28;20497;-81
2021/07/06 03:56:29;;;;;;;2.50;2.13;;;;;;;;;;5063905;28;20761;-81
2021/07/06 03:59:14;;;;;;;3.80;2.45;;;;;;;;;;5070512;28;20055;-81
2021/07/06 04:01:59;;;;;;;3.53;2.30;;;;;;;;;;5071409;28;20814;-81
2021/07/06 04:04:43;;;;;;;2.90;2.38;;;;;;;;;;5073855;28;20100;-80
2021/07/06 04:07:28;;;;;;;3.47;2.25;;;;;;;;;;5087135;28;20070;-81
2021/07/06 04:10:13;;;;;;;2.60;2.20;;;;;;;;;;5070504;28;20138;-81
2021/07/06 04:12:57;;;;;;;3.65;2.50;;;;;;;;;;5055533;28;20047;-81
2021/07/06 04:15:42;;;;;;;3.13;2.47;;;;;;;;;;5063573;28;20047;-81
2021/07/06 04:18:26;;;;;;;3.33;2.50;;;;;;;;;;5075887;28;20051;-81
2021/07/06 04:21:11;;;;;;;3.17;2.42;;;;;;;;;;5064447;28;20093;-81
2021/07/06 04:23:55;;;;;;;3.45;2.60;;;;;;;;;;5074300;28;20039;-81
2021/07/06 04:26:40;;;;;;;3.50;2.58;;;;;;;;;;5070097;28;20121;-81
2021/07/06 04:29:24;;;;;;;3.33;2.25;;;;;;;;;;5050643;28;20093;-81
2021/07/06 04:32:09;;;;;;;3.55;2.45;;;;;;;;;;5069830;28;20128;-81
2021/07/06 04:34:54;;;;;;;3.55;2.70;;;;;;;;;;5074855;28;20055;-81
2021/07/06 04:37:39;;;;;;;3.80;2.40;;;;;;;;;;5066441;28;20097;-81
2021/07/06 04:40:24;;;;;;;2.85;2.10;;;;;;;;;;5087330;28;20081;-81
2021/07/06 04:43:10;;;;;;;3.05;2.42;;;;;;;;;;5085743;28;20415;-81
2021/07/06 04:45:55;;;;;;;3.28;2.53;;;;;;;;;;5049211;28;20522;-81
2021/07/06 04:48:39;;;;;;;4.25;2.42;;;;;;;;;;5054831;28;20513;-82
2021/07/06 04:51:24;;;;;;;3.13;2.20;;;;;;;;;;5076544;28;20039;-80
2021/07/06 04:54:09;;;;;;;2.90;2.47;;;;;;;;;;5067500;28;20043;-80
2021/07/06 04:56:53;;;;;;;3.60;2.50;;;;;;;;;;5060012;28;20039;-80
2021/07/06 04:59:37;;;;;;;2.95;2.40;;;;;;;;;;5086925;28;20039;-79
2021/07/06 05:02:22;;;;;;;3.13;2.50;;;;;;;;;;5070062;28;20055;-80
2021/07/06 05:05:07;;;;;;;3.78;2.28;;;;;;;;;;5071793;28;20043;-80
2021/07/06 05:07:53;;;;;;;3.67;2.50;;;;;;;;;;5076532;28;20043;-80
2021/07/06 05:10:38;;;;;;;3.92;2.33;;;;;;;;;;5087433;28;20043;-80
2021/07/06 05:13:24;;;;;;;3.72;2.40;;;;;;;;;;5063459;28;20500;-80
2021/07/06 05:16:09;;;;;;;3.30;2.30;;;;;;;;;;5084211;28;20042;-80
2021/07/06 05:18:54;;;;;;;3.22;2.35;;;;;;;;;;5065278;28;20398;-80
2021/07/06 05:21:38;;;;;;;3.33;2.38;;;;;;;;;;5064543;28;20109;-80
2021/07/06 05:24:23;;;;;;;3.60;2.10;;;;;;;;;;5051369;28;20115;-80
2021/07/06 05:27:08;;;;;;;3.05;2.40;;;;;;;;;;5048739;28;20043;-80
2021/07/06 05:29:52;;;;;;;4.68;2.33;;;;;;;;;;5053042;28;20077;-79
2021/07/06 05:32:37;;;;;;;2.65;2.30;;;;;;;;;;5047061;28;20540;-80
2021/07/06 05:35:21;;;;;;;3.55;2.30;;;;;;;;;;5035554;28;20105;-80
2021/07/06 05:38:06;;;;;;;3.03;2.45;;;;;;;;;;5086290;28;20840;-80
2021/07/06 05:40:54;;;;;;;3.83;2.38;;;;;;;;;;5066945;28;20035;-80
2021/07/06 05:43:39;;;;;;;3.78;2.25;;;;;;;;;;5070193;28;20088;-80
2021/07/06 05:46:24;;;;;;;3.63;2.60;;;;;;;;;;5069964;28;20459;-80
2021/07/06 05:49:08;;;;;;;5.07;2.70;;;;;;;;;;5085939;28;20055;-79
2021/07/06 05:51:53;;;;;;;3.20;2.50;;;;;;;;;;5083923;28;20042;-79
2021/07/06 05:54:38;;;;;;;3.28;2.50;;;;;;;;;;5069838;28;20043;-80
2021/07/06 05:57:29;;;;;;;3.33;2.40;;;;;;;;;;5058756;28;20392;-80
2021/07/06 06:00:15;;;;;;;3.50;2.47;;;;;;;;;;5046267;28;20407;-80
2021/07/06 06:03:00;;;;;;;2.72;2.22;;;;;;;;;;5065318;28;20089;-80
2021/07/06 06:05:45;;;;;;;2.92;2.13;;;;;;;;;;5069908;28;20139;-80
2021/07/06 06:08:30;;;;;;;2.97;2.17;;;;;;;;;;5082539;28;20066;-80
2021/07/06 06:11:14;;;;;;;3.13;2.03;;;;;;;;;;5069799;28;20537;-80
2021/07/06 06:13:59;;;;;;;3.17;2.33;;;;;;;;;;5065756;28;20128;-80
2021/07/06 06:16:44;;;;;;;3.10;2.47;;;;;;;;;;5076452;28;20138;-80
2021/07/06 06:19:28;;;;;;;2.38;1.98;;;;;;;;;;5059508;28;20493;-80
2021/07/06 06:22:13;;;;;;;2.90;2.17;;;;;;;;;;5064094;28;20131;-80
2021/07/06 06:24:58;;;;;;;4.03;2.10;;;;;;;;;;5052433;28;20078;-80
2021/07/06 06:27:42;;;;;;;3.05;2.00;;;;;;;;;;5048063;28;20123;-80
2021/07/06 06:30:27;;;;;;;4.15;2.00;;;;;;;;;;5072530;28;20031;-79
2021/07/06 06:33:12;;;;;;;3.15;1.98;;;;;;;;;;5083307;28;20581;-80
2021/07/06 06:35:56;;;;;;;3.00;2.10;;;;;;;;;;5067747;28;20053;-80
2021/07/06 06:38:40;;;;;;;4.25;1.98;;;;;;;;;;5065812;28;20082;-80
2021/07/06 06:41:25;;;;;;;2.97;2.03;;;;;;;;;;5067632;28;20047;-80
2021/07/06 06:44:09;;;;;;;2.15;1.80;;;;;;;;;;5055545;28;20519;-80
2021/07/06 06:46:54;;;;;;;2.25;1.83;;;;;;;;;;5062568;28;20047;-80
2021/07/06 06:49:39;;;;;;;3.75;1.80;;;;;;;;;;5052241;28;20731;-80
2021/07/06 06:52:23;;;;;;;2.72;1.80;;;;;;;;;;5074683;28;20038;-79
2021/07/06 06:55:08;;;;;;;2.35;1.80;;;;;;;;;;5082703;28;20039;-79
2021/07/06 06:57:52;;;;;;;3.15;1.95;;;;;;;;;;5066832;28;20510;-80
2021/07/06 07:00:37;;;;;;;2.75;1.98;;;;;;;;;;5057309;28;20112;-80
2021/07/06 07:03:21;;;;;;;2.45;1.90;;;;;;;;;;5050065;28;20836;-80
2021/07/06 07:06:06;;;;;;;2.40;1.85;;;;;;;;;;5057367;28;20539;-80
2021/07/06 07:08:51;;;;;;;3.88;1.70;;;;;;;;;;5052077;28;20477;-80
2021/07/06 07:11:36;;;;;;;2.20;1.70;;;;;;;;;;5053285;28;20414;-79
2021/07/06 07:14:21;;;;;;;2.92;1.77;;;;;;;;;;5063722;28;20050;-80
2021/07/06 07:17:06;;;;;;;2.70;1.63;;;;;;;;;;5080474;28;20046;-80
2021/07/06 07:19:50;;;;;;;2.30;1.52;;;;;;;;;;5064554;28;20038;-80
2021/07/06 07:22:35;;;;;;;2.03;1.60;;;;;;;;;;5057072;28;20125;-80
2021/07/06 07:25:20;;;;;;;6.85;1.90;;;;;;;;;;5063703;28;20034;-80
2021/07/06 07:28:05;;;;;;;2.63;1.67;;;;;;;;;;5081384;28;20047;-80
2021/07/06 07:30:49;;;;;;;3.17;2.22;;;;;;;;;;5071925;28;20043;-79
2021/07/06 07:33:34;;;;;;;4.07;1.80;;;;;;;;;;5052038;28;20039;-79
2021/07/06 07:36:18;;;;;;;3.63;1.80;;;;;;;;;;5074402;28;20406;-79
2021/07/06 07:39:03;;;;;;;4.95;1.58;;;;;;;;;;5062487;28;20521;-80
2021/07/06 07:41:48;;;;;;;4.13;1.80;;;;;;;;;;5069455;28;20167;-79
2021/07/06 07:44:32;;;;;;;1.85;1.60;;;;;;;;;;5070169;28;20591;-79
2021/07/06 07:47:17;;;;;;;2.28;1.60;;;;;;;;;;5067178;28;20134;-80
2021/07/06 07:50:04;;;;;;;2.58;1.60;;;;;;;;;;5058092;28;20048;-79
2021/07/06 07:52:49;;;;;;;2.03;1.42;;;;;;;;;;5057091;28;20044;-80
2021/07/06 07:55:33;;;;;;;2.97;1.73;;;;;;;;;;5068763;28;20039;-80
2021/07/06 07:58:18;;;;;;;4.50;1.65;;;;;;;;;;5066262;28;20038;-79
2021/07/06 08:01:02;;;;;;;2.28;1.45;;;;;;;;;;5080749;28;20060;-80
2021/07/06 08:03:47;;;;;;;2.63;1.50;;;;;;;;;;5061067;28;20069;-79
2021/07/06 08:06:32;;;;;;;2.38;1.40;;;;;;;;;;5053618;28;20034;-80
2021/07/06 08:09:17;;;;;;;2.00;1.40;;;;;;;;;;5083973;28;20178;-80
2021/07/06 08:12:01;;;;;;;2.20;1.42;;;;;;;;;;5031075;28;20036;-80
2021/07/06 08:14:46;;;;;;;1.80;1.30;;;;;;;;;;5040880;28;20118;-79
2021/07/06 08:17:30;;;;;;;1.92;1.48;;;;;;;;;;5067495;28;20031;-80
2021/07/06 08:20:15;;;;;;;3.63;1.67;;;;;;;;;;5075700;28;20105;-80
2021/07/06 08:23:00;;;;;;;2.80;1.70;;;;;;;;;;5052584;28;20798;-80
2021/07/06 08:25:45;;;;;;;2.88;1.50;;;;;;;;;;5082399;28;20043;-80
2021/07/06 08:28:29;;;;;;;2.58;1.50;;;;;;;;;;5054159;28;20031;-79
2021/07/06 08:31:14;;;;;;;3.60;1.52;;;;;;;;;;5066078;28;20898;-80
2021/07/06 08:33:59;;;;;;;2.85;1.60;;;;;;;;;;5065466;28;20543;-80
2021/07/06 08:36:43;;;;;;;2.38;1.33;;;;;;;;;;5054173;28;20105;-80
2021/07/06 08:39:28;;;;;;;2.80;1.30;;;;;;;;;;5060310;28;20039;-80
2021/07/06 08:42:13;;;;;;;1.98;1.20;;;;;;;;;;5052284;28;20087;-80
2021/07/06 08:44:57;;;;;;;2.65;1.38;;;;;;;;;;5051765;28;20124;-79
2021/07/06 08:47:45;;;;;;;2.00;1.30;;;;;;;;;;5058756;28;20046;-80
2021/07/06 08:50:30;;;;;;;2.92;1.33;;;;;;;;;;5066504;28;20141;-80
2021/07/06 08:53:14;;;;;;;2.13;1.33;;;;;;;;;;5061331;28;20732;-80
2021/07/06 08:55:59;;;;;;;2.67;1.38;;;;;;;;;;5064998;28;20043;-80
2021/07/06 08:58:44;;;;;;;1.67;1.20;;;;;;;;;;5065967;28;20105;-80
2021/07/06 09:01:29;;;;;;;1.92;1.25;;;;;;;;;;5046139;28;20360;-80
2021/07/06 09:04:13;;;;;;;1.73;1.30;;;;;;;;;;5065495;28;20050;-80
2021/07/06 09:06:58;;;;;;;3.08;1.30;;;;;;;;;;5066734;28;20097;-80
2021/07/06 09:09:43;;;;;;;1.33;1.10;;;;;;;;;;5073646;28;20062;-80
2021/07/06 09:12:34;;;;;;;2.10;1.25;;;;;;;;;;5079540;28;20564;-80
2021/07/06 09:15:22;;;;;;;1.90;1.10;;;;;;;;;;5054680;28;20512;-79
2021/07/06 09:18:07;;;;;;;2.00;1.08;;;;;;;;;;5072882;28;20280;-80
2021/07/06 09:20:57;;;;;;;2.25;1.00;;;;;;;;;;5079109;28;20031;-80
2021/07/06 09:23:46;;;;;;;1.60;1.08;;;;;;;;;;5072154;28;20051;-80
2021/07/06 09:26:32;;;;;;;2.03;1.17;;;;;;;;;;5075413;28;20557;-79
2021/07/06 09:29:22;;;;;;;1.17;0.80;;;;;;;;;;5060444;28;20047;-80
2021/07/06 09:32:07;;;;;;;2.03;0.93;;;;;;;;;;5081190;28;20506;-80
2021/07/06 09:34:52;;;;;;;1.73;1.00;;;;;;;;;;5081237;28;20043;-79
2021/07/06 09:37:46;;;;;;;2.58;1.02;;;;;;;;;;5063417;28;20046;-79
2021/07/06 09:40:35;;;;;;;1.25;0.90;;;;;;;;;;5066299;28;20214;-80
2021/07/06 09:43:24;;;;;;;1.00;0.90;;;;;;;;;;5065762;28;20039;-79
2021/07/06 09:46:09;;;;;;;1.00;0.90;;;;;;;;;;5059582;28;20100;-79
2021/07/06 09:49:00;;;;;;;1.25;0.85;;;;;;;;;;5048419;28;20071;-79
2021/07/06 09:51:44;;;;;;;1.85;0.80;;;;;;;;;;5049738;28;20043;-81
2021/07/06 09:54:36;;;;;;;1.98;1.10;;;;;;;;;;5070076;28;20039;-80
2021/07/06 10:00:09;;;;;;;1.40;0.90;;;;;;;;;;5070857;28;20040;-80
2021/07/06 10:03:00;;;;;;;1.08;0.90;;;;;;;;;;5067501;28;20047;-80
2021/07/06 10:05:44;;;;;;;1.02;0.80;;;;;;;;;;5064626;28;20101;-80
2021/07/06 10:08:29;;;;;;;1.08;0.90;;;;;;;;;;5076969;28;20458;-80
2021/07/06 10:11:13;;;;;;;1.30;0.75;;;;;;;;;;5066407;28;20091;-79
2021/07/06 10:13:58;;;;;;;0.98;0.80;;;;;;;;;;5068883;28;20075;-81
2021/07/06 10:16:43;;;;;;;1.73;0.90;;;;;;;;;;5065080;28;20166;-80
2021/07/06 10:19:27;;;;;;;1.17;0.80;;;;;;;;;;5046614;28;20063;-80
2021/07/06 10:22:12;;;;;;;0.90;0.80;;;;;;;;;;5049725;28;20847;-81
2021/07/06 10:24:59;;;;;;;0.80;0.70;;;;;;;;;;5064468;28;20121;-80
2021/07/06 10:27:45;;;;;;;1.23;0.90;;;;;;;;;;5065162;28;20426;-80
2021/07/06 10:30:31;;;;;;;1.10;0.80;;;;;;;;;;5049768;28;20093;-79
2021/07/06 10:33:16;;;;;;;1.10;0.80;;;;;;;;;;5060731;28;20043;-80
2021/07/06 10:36:01;;;;;;;1.00;0.90;;;;;;;;;;5050296;28;20125;-81
2021/07/06 10:38:59;;;;;;;1.67;0.80;;;;;;;;;;5065235;28;20047;-81
2021/07/06 10:41:51;;;;;;;1.10;0.70;;;;;;;;;;5073333;28;20079;-81
2021/07/06 10:44:37;;;;;;;0.88;0.70;;;;;;;;;;5070311;28;20070;-81
2021/07/06 10:47:49;;;;;;;0.90;0.60;;;;;;;;;;5057954;28;20124;-81
2021/07/06 10:50:33;;;;;;;0.90;0.80;;;;;;;;;;5065505;28;20048;-82
2021/07/06 10:53:22;;;;;;;1.40;0.80;;;;;;;;;;5063108;28;20712;-81
2021/07/06 10:56:10;;;;;;;0.80;0.70;;;;;;;;;;5060561;28;20514;-82
2021/07/06 10:58:56;;;;;;;1.90;0.80;;;;;;;;;;5064661;28;20039;-82
2021/07/06 11:01:41;;;;;;;1.45;0.80;;;;;;;;;;5060891;28;20629;-81
2021/07/06 11:04:51;;;;;;;1.65;0.80;;;;;;;;;;5059927;28;20070;-81
2021/07/06 11:07:42;;;;;;;0.93;0.70;;;;;;;;;;5051025;28;20043;-82
2021/07/06 11:10:34;;;;;;;1.27;0.82;;;;;;;;;;5063002;28;20047;-82
2021/07/06 11:13:19;;;;;;;1.10;0.80;;;;;;;;;;5047062;28;20669;-82
2021/07/06 11:16:07;;;;;;;1.13;0.70;;;;;;;;;;5033579;28;20347;-82
2021/07/06 11:18:52;;;;;;;1.05;0.70;;;;;;;;;;5065417;28;20047;-82
2021/07/06 11:21:37;;;;;;;1.48;0.82;;;;;;;;;;5046266;28;20074;-82
2021/07/06 11:24:22;;;;;;;1.02;0.85;;;;;;;;;;5061361;28;20124;-82
2021/07/06 11:27:08;;;;;;;0.70;0.70;;;;;;;;;;5062831;28;20565;-82
2021/07/06 11:29:52;;;;;;;0.90;0.70;;;;;;;;;;5061399;28;20506;-82
2021/07/06 11:32:38;;;;;;;1.50;0.98;;;;;;;;;;5063644;28;20525;-82
2021/07/06 11:35:23;;;;;;;0.85;0.70;;;;;;;;;;5063350;28;20043;-82
2021/07/06 11:38:13;;;;;;;0.85;0.70;;;;;;;;;;5058815;28;20035;-81
2021/07/06 11:40:59;;;;;;;0.80;0.70;;;;;;;;;;5046177;28;20085;-82
2021/07/06 11:43:44;;;;;;;1.92;0.75;;;;;;;;;;5051478;28;20087;-81
2021/07/06 11:46:31;;;;;;;1.25;0.70;;;;;;;;;;5058708;28;20035;-81
2021/07/06 11:49:23;;;;;;;1.30;0.70;;;;;;;;;;5044121;28;20078;-81
2021/07/06 11:52:07;;;;;;;1.67;0.73;;;;;;;;;;5059908;28;20078;-80
2021/07/06 11:54:52;;;;;;;1.40;0.90;;;;;;;;;;5055992;28;20063;-81
2021/07/06 11:57:37;;;;;;;1.10;0.85;;;;;;;;;;5050725;28;20526;-80
2021/07/06 12:00:22;;;;;;;2.25;0.77;;;;;;;;;;5054834;28;20035;-78
2021/07/06 12:03:23;;;;;;;1.20;0.80;;;;;;;;;;5052914;28;20055;-78
2021/07/06 12:06:09;;;;;;;1.00;0.70;;;;;;;;;;5063549;28;20060;-80
2021/07/06 12:08:53;;;;;;;0.60;0.60;;;;;;;;;;5067559;28;20039;-80
2021/07/06 12:11:38;;;;;;;0.85;0.77;;;;;;;;;;5047617;28;20043;-79
2021/07/06 12:14:23;;;;;;;3.75;0.90;;;;;;;;;;5047549;28;20616;-80
2021/07/06 12:17:07;;;;;;;1.55;0.80;;;;;;;;;;5067349;28;20075;-80
2021/07/06 12:19:52;;;;;;;1.55;0.90;;;;;;;;;;5067114;28;20039;-80
2021/07/06 12:22:36;;;;;;;0.82;0.80;;;;;;;;;;5053156;28;20179;-80
2021/07/06 12:25:21;;;;;;;1.10;0.85;;;;;;;;;;5053561;28;20108;-78
2021/07/06 12:28:06;;;;;;;1.60;0.90;;;;;;;;;;5047466;28;20094;-79
2021/07/06 12:31:09;;;;;;;1.10;0.80;;;;;;;;;;5064935;28;20039;-80
2021/07/06 12:34:11;;;;;;;1.10;0.80;;;;;;;;;;5079918;28;20451;-80
2021/07/06 12:36:56;;;;;;;2.05;0.80;;;;;;;;;;5067027;28;20101;-79
2021/07/06 12:39:45;;;;;;;0.90;0.80;;;;;;;;;;5052736;28;20038;-79
2021/07/06 12:42:34;;;;;;;0.80;0.80;;;;;;;;;;5050144;28;20135;-78
2021/07/06 12:45:19;;;;;;;1.20;0.80;;;;;;;;;;5063895;28;20138;-80
2021/07/06 12:48:06;;;;;;;1.60;1.00;;;;;;;;;;5033001;28;20056;-80
2021/07/06 12:50:51;;;;;;;0.90;0.80;;;;;;;;;;5061044;28;20449;-81
2021/07/06 12:53:35;;;;;;;2.15;1.13;;;;;;;;;;5066922;28;20437;-79
2021/07/06 12:56:25;;;;;;;1.10;0.90;;;;;;;;;;5060945;28;20097;-79
2021/07/06 12:59:26;;;;;;;1.58;0.80;;;;;;;;;;5047804;28;20086;-80
2021/07/06 13:02:20;;;;;;;1.15;0.80;;;;;;;;;;5047773;28;20052;-80
2021/07/06 13:05:06;;;;;;;1.60;0.90;;;;;;;;;;5058122;28;20139;-79
2021/07/06 13:07:51;;;;;;;1.35;0.90;;;;;;;;;;5065927;28;20035;-79
2021/07/06 13:10:36;;;;;;;1.50;0.90;;;;;;;;;;5064624;28;20048;-80
2021/07/06 13:13:21;;;;;;;1.13;0.88;;;;;;;;;;5044023;28;20354;-81
2021/07/06 13:16:07;;;;;;;1.30;0.82;;;;;;;;;;5068236;28;20146;-80
2021/07/06 13:18:52;;;;;;;1.20;0.82;;;;;;;;;;5066188;28;20128;-80
2021/07/06 13:21:36;;;;;;;1.00;0.80;;;;;;;;;;5055576;28;20597;-78
2021/07/06 13:24:21;;;;;;;1.50;0.90;;;;;;;;;;5054721;28;20196;-75
2021/07/06 13:27:05;;;;;;;2.10;0.90;;;;;;;;;;5064077;28;20059;-76
2021/07/06 13:29:50;;;;;;;1.40;0.90;;;;;;;;;;5071683;28;20039;-78
2021/07/06 13:32:41;;;;;;;2.95;0.90;;;;;;;;;;5051060;28;20043;-78
2021/07/06 13:35:26;;;;;;;2.85;1.00;;;;;;;;;;5067718;28;20039;-77
2021/07/06 13:38:11;;;;;;;1.35;0.90;;;;;;;;;;5064046;28;20082;-77
2021/07/06 13:40:55;;;;;;;3.50;1.08;;;;;;;;;;5071349;28;20051;-77
2021/07/06 13:43:40;;;;;;;1.77;1.00;;;;;;;;;;5056926;28;20121;-79
2021/07/06 13:46:24;;;;;;;1.73;0.80;;;;;;;;;;5068661;28;20067;-76
2021/07/06 13:49:10;;;;;;;1.00;0.90;;;;;;;;;;5054179;28;20040;-77
2021/07/06 13:51:58;;;;;;;2.08;0.98;;;;;;;;;;5052247;28;20047;-76
2021/07/06 13:54:44;;;;;;;1.30;1.00;;;;;;;;;;5067475;28;20038;-78
2021/07/06 13:57:29;;;;;;;2.38;0.82;;;;;;;;;;5061039;28;20105;-77
2021/07/06 14:00:14;;;;;;;1.80;1.00;;;;;;;;;;5057182;28;20404;-77
2021/07/06 14:03:00;;;;;;;1.75;0.90;;;;;;;;;;5072388;28;20083;-77
2021/07/06 14:05:45;;;;;;;1.75;0.98;;;;;;;;;;5069081;28;20074;-78
2021/07/06 14:08:29;;;;;;;1.80;0.90;;;;;;;;;;5057505;28;20123;-77
2021/07/06 14:11:14;;;;;;;1.95;0.90;;;;;;;;;;5052288;28;20039;-77
2021/07/06 14:13:59;;;;;;;1.92;0.90;;;;;;;;;;5077950;28;20062;-77
2021/07/06 14:16:44;;;;;;;3.05;0.85;;;;;;;;;;5063660;28;20043;-77
2021/07/06 14:19:28;;;;;;;1.95;0.95;;;;;;;;;;5053390;28;20042;-77
2021/07/06 14:22:13;;;;;;;0.90;0.80;;;;;;;;;;5052250;28;20517;-77
2021/07/06 14:24:57;;;;;;;2.55;1.10;;;;;;;;;;5065231;28;20035;-77
2021/07/06 14:27:42;;;;;;;2.53;1.02;;;;;;;;;;5064398;28;20047;-77
2021/07/06 14:30:29;;;;;;;1.30;1.10;;;;;;;;;;5065772;28;20034;-78
2021/07/06 14:33:14;;;;;;;1.90;1.00;;;;;;;;;;5065366;28;20442;-78
2021/07/06 14:35:58;;;;;;;1.30;1.00;;;;;;;;;;5065007;28;20502;-77
2021/07/06 14:38:43;;;;;;;2.60;1.10;;;;;;;;;;5047283;28;20458;-79
2021/07/06 14:41:28;;;;;;;1.58;1.10;;;;;;;;;;5047809;28;20048;-77
2021/07/06 14:44:12;;;;;;;2.22;1.10;;;;;;;;;;5058660;28;20047;-79
2021/07/06 14:46:57;;;;;;;2.13;1.30;;;;;;;;;;5060568;28;20426;-79
2021/07/06 14:49:42;;;;;;;1.63;1.20;;;;;;;;;;5046556;28;20089;-77
2021/07/06 14:52:26;;;;;;;1.60;1.10;;;;;;;;;;5069724;28;20031;-79
2021/07/06 14:55:11;;;;;;;2.92;1.20;;;;;;;;;;5033149;28;20060;-78
2021/07/06 14:57:56;;;;;;;2.95;1.42;;;;;;;;;;5046835;28;20086;-78
2021/07/06 15:00:41;;;;;;;4.00;1.20;;;;;;;;;;5065518;28;20446;-77
2021/07/06 15:03:26;;;;;;;2.45;1.30;;;;;;;;;;5060911;28;20410;-77
2021/07/06 15:06:10;;;;;;;2.83;1.38;;;;;;;;;;5051054;28;20064;-79
2021/07/06 15:08:56;;;;;;;2.60;1.30;;;;;;;;;;5056034;28;20430;-79
2021/07/06 15:11:41;;;;;;;4.03;1.50;;;;;;;;;;5058152;28;20042;-78
2021/07/06 15:14:25;;;;;;;2.03;1.30;;;;;;;;;;5068214;28;20039;-78
2021/07/06 15:17:10;;;;;;;2.60;1.30;;;;;;;;;;5067431;28;20565;-76
2021/07/06 15:19:54;;;;;;;2.88;1.45;;;;;;;;;;5056314;28;20105;-75
2021/07/06 15:22:39;;;;;;;2.90;1.60;;;;;;;;;;5056209;28;20075;-76
2021/07/06 15:25:24;;;;;;;1.95;1.40;;;;;;;;;;5042959;28;20464;-75
2021/07/06 15:28:10;;;;;;;2.30;1.48;;;;;;;;;;5056955;28;20039;-76
2021/07/06 15:30:55;;;;;;;3.08;1.40;;;;;;;;;;5059013;28;20047;-78
2021/07/06 15:33:42;;;;;;;2.67;1.45;;;;;;;;;;5064729;28;20038;-76
2021/07/06 15:36:26;;;;;;;3.10;1.67;;;;;;;;;;5065168;28;20070;-76
2021/07/06 15:39:11;;;;;;;4.63;1.65;;;;;;;;;;5059435;28;20046;-77
2021/07/06 15:41:56;;;;;;;3.08;1.48;;;;;;;;;;5058691;28;20043;-75
2021/07/06 15:44:41;;;;;;;2.47;1.20;;;;;;;;;;5077134;28;20044;-76
2021/07/06 15:47:25;;;;;;;3.03;1.40;;;;;;;;;;5056993;28;20527;-75
2021/07/06 15:50:10;;;;;;;2.72;1.50;;;;;;;;;;5057287;28;20407;-76
2021/07/06 15:52:55;;;;;;;3.30;1.30;;;;;;;;;;5063089;28;20040;-76
2021/07/06 15:55:39;;;;;;;3.15;1.70;;;;;;;;;;5046598;28;20110;-75
2021/07/06 15:58:24;;;;;;;3.05;1.70;;;;;;;;;;5070864;28;20040;-76
2021/07/06 16:01:09;;;;;;;3.88;1.70;;;;;;;;;;5062588;28;20059;-75
2021/07/06 16:03:53;;;;;;;3.47;1.90;;;;;;;;;;5042954;28;20099;-75
2021/07/06 16:06:38;;;;;;;2.13;1.42;;;;;;;;;;5047218;28;20043;-76
2021/07/06 16:09:22;;;;;;;3.38;1.65;;;;;;;;;;5063221;28;20174;-76
2021/07/06 16:12:07;;;;;;;2.40;1.70;;;;;;;;;;5048144;28;20053;-74
2021/07/06 16:14:52;;;;;;;2.92;1.65;;;;;;;;;;5064280;28;20038;-76
2021/07/06 16:17:36;;;;;;;2.58;1.70;;;;;;;;;;5063658;28;20048;-78
2021/07/06 16:20:22;;;;;;;2.08;1.60;;;;;;;;;;5048833;28;20398;-78
2021/07/06 16:23:07;;;;;;;3.17;1.80;;;;;;;;;;5047699;28;20058;-76
2021/07/06 16:25:51;;;;;;;2.60;1.70;;;;;;;;;;5062293;28;20582;-74
2021/07/06 16:28:36;;;;;;;2.17;1.58;;;;;;;;;;5036615;28;20052;-75
2021/07/06 16:31:21;;;;;;;2.90;1.60;;;;;;;;;;5059631;28;20034;-76
2021/07/06 16:34:05;;;;;;;2.50;1.98;;;;;;;;;;5056884;28;20086;-78
2021/07/06 16:36:50;;;;;;;3.63;2.03;;;;;;;;;;5041083;28;20054;-75